createdAt,value
2018-12-20T00:02:12.134Z,6.63
2018-12-20T00:04:44.136Z,7.10
2018-12-20T00:07:15.133Z,6.97
2018-12-20T00:09:45.486Z,7.20
2018-12-20T00:12:15.118Z,10.17
2018-12-20T00:14:45.547Z,7.50
2018-12-20T00:17:20.010Z,9.27
2018-12-20T00:19:49.917Z,10.30
2018-12-20T00:22:20.073Z,10.43
2018-12-20T00:24:50.989Z,10.83
2018-12-20T00:27:21.037Z,9.73
2018-12-20T00:29:51.029Z,9.30
2018-12-20T00:32:21.354Z,9.33
2018-12-20T00:34:51.530Z,9.63
2018-12-20T00:37:21.519Z,8.97
2018-12-20T00:39:51.822Z,10.47
2018-12-20T00:42:22.651Z,10.07
2018-12-20T00:44:54.114Z,10.50
2018-12-20T00:47:24.921Z,9.70
2018-12-20T00:49:56.423Z,9.63
2018-12-20T00:52:26.514Z,9.93
2018-12-20T00:54:56.580Z,9.20
2018-12-20T00:57:27.110Z,8.40
2018-12-20T00:59:57.405Z,10.10
2018-12-20T01:02:27.046Z,9.97
2018-12-20T01:04:56.861Z,10.07
2018-12-20T01:07:26.731Z,9.47
2018-12-20T01:09:56.408Z,10.47
2018-12-20T01:12:26.717Z,9.40
2018-12-20T01:14:56.714Z,9.20
2018-12-20T01:17:30.365Z,10.50
2018-12-20T01:20:00.758Z,9.90
2018-12-20T01:22:31.320Z,10.10
2018-12-20T01:25:01.020Z,9.90
2018-12-20T01:27:31.325Z,8.90
2018-12-20T01:30:01.410Z,9.40
2018-12-20T01:32:31.258Z,9.03
2018-12-20T01:35:01.552Z,9.37
2018-12-20T01:37:32.314Z,9.47
2018-12-20T01:40:02.623Z,10.47
2018-12-20T01:42:33.162Z,9.80
2018-12-20T01:45:02.842Z,9.70
2018-12-20T01:47:32.984Z,10.73
2018-12-20T01:50:06.035Z,11.17
2018-12-20T01:52:36.274Z,11.10
2018-12-20T01:55:06.547Z,10.90
2018-12-20T01:57:36.535Z,10.37
2018-12-20T02:00:11.785Z,9.97
2018-12-20T02:02:41.735Z,10.50
2018-12-20T02:05:12.062Z,10.90
2018-12-20T02:07:41.982Z,10.30
2018-12-20T02:10:11.930Z,9.90
2018-12-20T02:12:42.685Z,9.40
2018-12-20T02:15:12.744Z,9.80
2018-12-20T02:17:43.193Z,9.13
2018-12-20T02:20:13.942Z,9.40
2018-12-20T02:22:44.173Z,10.40
2018-12-20T02:25:14.673Z,11.50
2018-12-20T02:27:45.390Z,9.93
2018-12-20T02:30:15.552Z,11.03
2018-12-20T02:32:45.465Z,10.37
2018-12-20T02:35:17.096Z,9.73
2018-12-20T02:37:46.986Z,9.47
2018-12-20T02:40:16.945Z,9.80
2018-12-20T02:42:47.474Z,9.40
2018-12-20T02:45:17.503Z,9.73
2018-12-20T02:47:47.441Z,9.50
2018-12-20T02:50:17.878Z,9.17
2018-12-20T02:52:48.066Z,9.30
2018-12-20T02:55:18.754Z,10.63
2018-12-20T02:57:50.314Z,10.57
2018-12-20T03:00:20.519Z,9.67
2018-12-20T03:02:50.726Z,10.00
2018-12-20T03:05:20.824Z,9.80
2018-12-20T03:07:51.048Z,9.33
2018-12-20T03:10:20.930Z,9.50
2018-12-20T03:12:51.226Z,10.43
2018-12-20T03:15:22.944Z,9.73
2018-12-20T03:17:52.776Z,10.10
2018-12-20T03:20:23.618Z,10.97
2018-12-20T03:22:54.588Z,10.33
2018-12-20T03:25:24.366Z,11.83
2018-12-20T03:27:55.282Z,10.50
2018-12-20T03:30:25.600Z,11.80
2018-12-20T03:32:55.660Z,10.97
2018-12-20T03:35:25.974Z,9.87
2018-12-20T03:37:55.587Z,10.37
2018-12-20T03:40:25.601Z,10.90
2018-12-20T03:42:55.518Z,10.47
2018-12-20T03:45:29.144Z,10.60
2018-12-20T03:47:57.129Z,10.73
2018-12-20T03:50:28.985Z,10.40
2018-12-20T03:52:58.667Z,10.73
2018-12-20T03:55:28.448Z,10.30
2018-12-20T03:57:59.733Z,10.07
2018-12-20T04:00:30.110Z,10.97
2018-12-20T04:02:59.727Z,9.90
2018-12-20T04:05:30.145Z,11.17
2018-12-20T04:08:00.536Z,10.63
2018-12-20T04:10:30.866Z,10.93
2018-12-20T04:13:00.860Z,10.60
2018-12-20T04:15:37.780Z,9.67
2018-12-20T04:18:02.608Z,10.23
2018-12-20T04:20:33.870Z,9.77
2018-12-20T04:23:03.431Z,9.53
2018-12-20T04:25:33.522Z,10.17
2018-12-20T04:28:03.866Z,9.20
2018-12-20T04:30:37.053Z,9.23
2018-12-20T04:33:07.725Z,8.90
2018-12-20T04:35:37.575Z,9.60
2018-12-20T04:38:07.994Z,9.93
2018-12-20T04:40:38.232Z,8.80
2018-12-20T04:43:08.189Z,8.97
2018-12-20T04:45:46.430Z,9.03
2018-12-20T04:48:11.078Z,8.90
2018-12-20T04:50:41.108Z,8.57
2018-12-20T04:53:12.060Z,8.60
2018-12-20T04:55:44.978Z,7.73
2018-12-20T04:58:17.160Z,9.07
2018-12-20T05:00:48.535Z,7.73
2018-12-20T05:03:18.730Z,8.47
2018-12-20T05:05:48.400Z,7.80
2018-12-20T05:08:19.304Z,8.37
2018-12-20T05:11:10.018Z,7.20
2018-12-20T05:13:43.078Z,7.13
2018-12-20T05:16:14.105Z,5.73
2018-12-20T05:18:44.585Z,4.67
2018-12-20T05:21:16.004Z,4.67
2018-12-20T05:23:46.559Z,4.60
2018-12-20T05:26:17.730Z,4.60
2018-12-20T05:28:48.419Z,4.73
2018-12-20T05:31:19.008Z,4.80
2018-12-20T05:33:49.339Z,4.97
2018-12-20T05:36:18.831Z,4.10
2018-12-20T05:38:48.537Z,4.23
2018-12-20T05:41:18.162Z,4.80
2018-12-20T05:43:48.306Z,4.30
2018-12-20T05:46:19.641Z,4.77
2018-12-20T05:48:49.911Z,4.20
2018-12-20T05:51:19.812Z,4.40
2018-12-20T05:53:51.208Z,4.63
2018-12-20T05:56:23.477Z,4.20
2018-12-20T05:58:53.354Z,4.20
2018-12-20T06:01:24.180Z,3.60
2018-12-20T06:03:55.465Z,4.10
2018-12-20T06:06:26.933Z,3.90
2018-12-20T06:08:56.900Z,3.90
2018-12-20T06:11:28.133Z,3.57
2018-12-20T06:13:59.226Z,2.90
2018-12-20T06:16:29.834Z,3.30
2018-12-20T06:18:59.849Z,3.13
2018-12-20T06:21:31.281Z,2.63
2018-12-20T06:24:01.124Z,2.10
2018-12-20T06:26:30.928Z,2.70
2018-12-20T06:29:01.354Z,2.40
2018-12-20T06:31:32.036Z,2.60
2018-12-20T06:34:01.794Z,2.33
2018-12-20T06:36:32.479Z,2.60
2018-12-20T06:39:02.002Z,2.70
2018-12-20T06:41:31.996Z,2.60
2018-12-20T06:44:07.090Z,2.60
2018-12-20T06:46:36.234Z,3.23
2018-12-20T06:49:06.639Z,3.00
2018-12-20T06:51:39.514Z,2.70
2018-12-20T06:54:09.069Z,3.10
2018-12-20T06:56:39.623Z,3.00
2018-12-20T06:59:09.585Z,2.97
2018-12-20T07:01:39.721Z,3.23
2018-12-20T07:04:10.078Z,3.07
2018-12-20T07:06:41.960Z,3.43
2018-12-20T07:09:12.043Z,3.30
2018-12-20T07:11:41.871Z,3.50
2018-12-20T07:14:11.646Z,3.17
2018-12-20T07:16:41.129Z,3.40
2018-12-20T07:19:11.156Z,3.40
2018-12-20T07:21:41.096Z,3.70
2018-12-20T07:24:10.685Z,4.10
2018-12-20T07:26:40.188Z,4.10
2018-12-20T07:29:11.499Z,4.30
2018-12-20T07:31:40.962Z,4.10
2018-12-20T07:34:11.472Z,4.43
2018-12-20T07:36:41.854Z,4.73
2018-12-20T07:39:11.738Z,4.50
2018-12-20T07:41:41.229Z,4.30
2018-12-20T07:44:11.417Z,4.77
2018-12-20T07:46:41.488Z,5.00
2018-12-20T07:49:11.458Z,5.03
2018-12-20T07:51:42.398Z,5.13
2018-12-20T07:54:13.244Z,4.03
2018-12-20T07:56:43.651Z,5.20
2018-12-20T07:59:14.057Z,5.60
2018-12-20T08:01:43.590Z,5.40
2018-12-20T08:04:13.917Z,5.43
2018-12-20T08:06:43.748Z,5.07
2018-12-20T08:09:13.356Z,5.03
2018-12-20T08:11:42.882Z,5.13
2018-12-20T08:14:13.854Z,5.30
2018-12-20T08:16:46.161Z,5.40
2018-12-20T08:19:16.182Z,4.63
2018-12-20T08:21:46.134Z,4.53
2018-12-20T08:24:16.074Z,4.77
2018-12-20T08:26:45.707Z,4.87
2018-12-20T08:29:17.415Z,5.00
2018-12-20T08:31:47.144Z,4.50
2018-12-20T08:34:16.505Z,4.10
2018-12-20T08:36:46.196Z,4.00
2018-12-20T08:39:16.594Z,4.73
2018-12-20T08:41:46.868Z,3.57
2018-12-20T08:44:16.735Z,3.50
2018-12-20T08:46:54.141Z,3.80
2018-12-20T08:49:20.715Z,3.90
2018-12-20T08:51:50.701Z,3.50
2018-12-20T08:54:20.877Z,3.90
2018-12-20T08:56:50.491Z,4.63
2018-12-20T08:59:20.849Z,3.90
2018-12-20T09:01:50.568Z,3.63
2018-12-20T09:04:21.801Z,3.50
2018-12-20T09:06:52.113Z,4.33
2018-12-20T09:09:21.923Z,4.10
2018-12-20T09:11:51.609Z,4.10
2018-12-20T09:14:21.762Z,3.43
2018-12-20T09:16:52.647Z,3.63
2018-12-20T09:19:22.927Z,3.60
2018-12-20T09:21:52.573Z,3.23
2018-12-20T09:24:22.028Z,3.70
2018-12-20T09:26:52.654Z,3.70
2018-12-20T09:29:22.514Z,3.80
2018-12-20T09:31:53.544Z,3.40
2018-12-20T09:34:23.042Z,4.07
2018-12-20T09:36:52.648Z,4.00
2018-12-20T09:39:23.392Z,3.80
2018-12-20T09:41:55.381Z,3.60
2018-12-20T09:44:27.409Z,4.00
2018-12-20T09:47:11.426Z,3.83
2018-12-20T09:49:38.021Z,3.70
2018-12-20T09:52:08.237Z,3.80
2018-12-20T09:54:38.409Z,3.20
2018-12-20T09:57:08.611Z,2.70
2018-12-20T09:59:38.573Z,2.70
2018-12-20T10:02:09.289Z,2.40
2018-12-20T10:04:39.670Z,2.57
2018-12-20T10:07:10.013Z,2.43
2018-12-20T10:09:40.063Z,2.67
2018-12-20T10:12:09.509Z,2.57
2018-12-20T10:14:38.897Z,2.13
2018-12-20T10:17:08.806Z,2.07
2018-12-20T10:19:39.519Z,1.83
2018-12-20T10:23:34.514Z,2.23
2018-12-20T10:26:04.770Z,1.73
2018-12-20T10:28:34.673Z,1.80
2018-12-20T10:31:04.645Z,1.63
2018-12-20T10:33:34.560Z,2.10
2018-12-20T10:36:06.181Z,1.50
2018-12-20T10:38:37.042Z,1.80
2018-12-20T10:41:07.189Z,1.70
2018-12-20T10:43:38.395Z,2.00
2018-12-20T10:46:08.357Z,2.33
2018-12-20T10:48:38.198Z,2.10
2018-12-20T10:51:09.716Z,2.10
2018-12-20T10:53:40.192Z,2.40
2018-12-20T10:56:10.647Z,2.20
2018-12-20T10:58:40.459Z,2.07
2018-12-20T11:01:15.780Z,2.13
2018-12-20T11:03:47.504Z,2.30
2018-12-20T11:06:23.288Z,2.27
2018-12-20T11:08:58.435Z,2.03
2018-12-20T11:11:35.698Z,2.20
2018-12-20T11:14:08.449Z,1.87
2018-12-20T11:16:39.402Z,2.00
2018-12-20T11:19:12.322Z,1.87
2018-12-20T11:21:43.175Z,1.80
2018-12-20T11:24:13.111Z,2.20
2018-12-20T11:26:43.460Z,1.77
2018-12-20T11:29:15.696Z,2.23
2018-12-20T11:31:46.260Z,2.10
2018-12-20T11:34:16.740Z,2.23
2018-12-20T11:36:46.765Z,2.10
2018-12-20T11:39:16.818Z,1.50
2018-12-20T11:41:46.858Z,2.20
2018-12-20T11:44:17.295Z,2.23
2018-12-20T11:46:49.094Z,1.83
2018-12-20T11:49:20.091Z,1.80
2018-12-20T11:51:49.598Z,1.97
2018-12-20T11:54:19.068Z,1.60
2018-12-20T11:56:49.021Z,2.00
2018-12-20T11:59:20.336Z,1.80
2018-12-20T12:01:52.153Z,1.53
2018-12-20T12:04:24.485Z,1.57
2018-12-20T12:06:54.800Z,1.40
2018-12-20T12:09:28.043Z,1.40
2018-12-20T12:11:59.245Z,1.40
2018-12-20T12:14:31.253Z,1.17
2018-12-20T12:17:01.225Z,1.40
2018-12-20T12:19:31.971Z,1.50
2018-12-20T12:22:05.576Z,1.40
2018-12-20T12:24:36.089Z,1.30
2018-12-20T12:27:06.173Z,1.50
2018-12-20T12:29:37.667Z,1.57
2018-12-20T12:32:13.143Z,1.50
2018-12-20T12:34:43.572Z,1.60
2018-12-20T12:37:15.084Z,1.70
2018-12-20T12:39:49.766Z,1.70
2018-12-20T12:42:22.644Z,1.63
2018-12-20T12:44:57.144Z,1.50
2018-12-20T12:47:34.820Z,1.50
2018-12-20T12:50:06.896Z,1.80
2018-12-20T12:52:40.956Z,1.70
2018-12-20T12:55:14.937Z,1.33
2018-12-20T12:57:45.474Z,1.40
2018-12-20T13:00:22.345Z,1.93
2018-12-20T13:02:53.805Z,1.40
2018-12-20T13:05:25.808Z,1.60
2018-12-20T13:08:05.674Z,1.60
2018-12-20T13:10:36.139Z,1.90
2018-12-20T13:13:07.017Z,2.00
2018-12-20T13:15:39.487Z,1.70
2018-12-20T13:18:13.790Z,2.10
2018-12-20T13:20:43.175Z,1.80
2018-12-20T13:23:13.779Z,2.10
2018-12-20T13:25:44.359Z,1.60
2018-12-20T13:28:14.670Z,2.00
2018-12-20T13:30:44.850Z,1.90
2018-12-20T13:33:14.291Z,2.03
2018-12-20T13:35:44.050Z,1.97
2018-12-20T13:38:15.745Z,1.90
2018-12-20T13:40:46.364Z,2.10
2018-12-20T13:43:16.239Z,1.60
2018-12-20T13:45:46.625Z,1.57
2018-12-20T13:48:22.315Z,1.67
2018-12-20T13:50:54.488Z,1.70
2018-12-20T13:53:24.856Z,1.60
2018-12-20T13:55:56.885Z,1.30
2018-12-20T13:58:28.208Z,1.17
2018-12-20T14:00:59.100Z,1.20
2018-12-20T14:03:29.796Z,1.00
2018-12-20T14:06:00.656Z,1.00
2018-12-20T14:08:32.899Z,1.20
2018-12-20T14:11:06.018Z,1.10
2018-12-20T14:13:37.534Z,1.00
2018-12-20T14:16:11.426Z,0.90
2018-12-20T14:18:47.482Z,0.90
2018-12-20T14:21:29.546Z,0.97
2018-12-20T14:24:01.008Z,1.00
2018-12-20T14:26:32.324Z,1.00
2018-12-20T14:29:08.166Z,0.90
2018-12-20T14:31:40.668Z,1.63
2018-12-20T14:34:12.247Z,1.10
2018-12-20T14:36:44.872Z,1.10
2018-12-20T14:39:16.485Z,1.00
2018-12-20T14:41:48.166Z,1.00
2018-12-20T14:44:19.445Z,1.23
2018-12-20T14:46:50.161Z,1.30
2018-12-20T14:49:22.128Z,1.27
2018-12-20T14:51:53.417Z,1.10
2018-12-20T14:54:27.317Z,1.20
2018-12-20T14:57:01.869Z,1.10
2018-12-20T14:59:33.488Z,1.07
2018-12-20T15:02:03.454Z,1.23
2018-12-20T15:04:33.671Z,1.30
2018-12-20T15:07:04.520Z,1.10
2018-12-20T15:09:34.676Z,1.13
2018-12-20T15:12:06.720Z,1.13
2018-12-20T15:14:39.046Z,1.30
2018-12-20T15:17:11.223Z,1.20
2018-12-20T15:19:43.686Z,1.10
2018-12-20T15:22:14.559Z,1.20
2018-12-20T15:24:46.400Z,1.27
2018-12-20T15:27:17.820Z,1.20
2018-12-20T15:29:48.647Z,1.23
2018-12-20T15:32:24.167Z,1.50
2018-12-20T15:34:54.202Z,1.67
2018-12-20T15:37:24.639Z,1.80
2018-12-20T15:39:55.622Z,1.40
2018-12-20T15:42:26.883Z,1.70
2018-12-20T15:45:03.635Z,1.73
2018-12-20T15:47:34.872Z,2.13
2018-12-20T15:50:15.168Z,1.70
2018-12-20T15:52:47.560Z,1.87
2018-12-20T15:55:20.176Z,1.80
2018-12-20T15:57:50.140Z,1.93
2018-12-20T16:00:20.110Z,1.77
2018-12-20T16:02:51.119Z,1.50
2018-12-20T16:05:23.738Z,1.90
2018-12-20T16:07:57.862Z,1.70
2018-12-20T16:10:30.082Z,1.60
2018-12-20T16:13:06.455Z,1.63
2018-12-20T16:15:36.871Z,1.50
2018-12-20T16:18:08.932Z,1.50
2018-12-20T16:20:44.526Z,1.30
2018-12-20T16:23:16.863Z,1.40
2018-12-20T16:25:50.838Z,1.40
2018-12-20T16:28:22.526Z,1.40
2018-12-20T16:30:52.662Z,1.37
2018-12-20T16:33:24.168Z,1.20
2018-12-20T16:35:57.353Z,1.40
2018-12-20T16:38:32.683Z,1.40
2018-12-20T16:41:04.907Z,1.57
2018-12-20T16:43:34.851Z,1.30
2018-12-20T16:46:06.338Z,1.50
2018-12-20T16:48:37.678Z,1.50
2018-12-20T16:51:08.580Z,1.40
2018-12-20T16:53:41.371Z,1.57
2018-12-20T16:56:11.786Z,1.67
2018-12-20T16:58:45.243Z,1.60
2018-12-20T17:01:15.362Z,1.90
2018-12-20T17:03:45.524Z,1.43
2018-12-20T17:06:15.456Z,1.40
2018-12-20T17:08:48.265Z,1.50
2018-12-20T17:11:17.658Z,1.50
2018-12-20T17:13:49.004Z,1.10
2018-12-20T17:16:19.122Z,1.00
2018-12-20T17:18:48.834Z,1.10
2018-12-20T17:21:19.476Z,1.50
2018-12-20T17:23:49.398Z,0.90
2018-12-20T17:26:20.698Z,0.90
2018-12-20T17:28:50.824Z,1.10
2018-12-20T17:31:23.267Z,1.00
2018-12-20T17:33:55.216Z,1.20
2018-12-20T17:36:28.758Z,1.00
2018-12-20T17:39:00.212Z,1.00
2018-12-20T17:41:30.749Z,1.00
2018-12-20T17:44:01.920Z,1.43
2018-12-20T17:47:35.529Z,1.00
2018-12-20T17:50:08.871Z,1.17
2018-12-20T17:52:41.196Z,1.40
2018-12-20T17:55:12.162Z,1.83
2018-12-20T17:57:47.602Z,1.57
2018-12-20T18:00:20.505Z,2.03
2018-12-20T18:02:52.062Z,1.43
2018-12-20T18:05:23.501Z,2.00
2018-12-20T18:07:54.977Z,1.70
2018-12-20T18:10:28.570Z,2.00
2018-12-20T18:12:59.557Z,1.90
2018-12-20T18:15:34.516Z,1.87
2018-12-20T18:18:07.671Z,1.70
2018-12-20T18:20:42.062Z,1.57
2018-12-20T18:23:14.228Z,1.90
2018-12-20T18:25:47.968Z,1.50
2018-12-20T18:28:22.350Z,1.90
2018-12-20T18:31:06.254Z,1.70
2018-12-20T18:33:36.852Z,1.50
2018-12-20T18:36:08.740Z,1.70
2018-12-20T18:38:43.691Z,1.50
2018-12-20T18:41:20.538Z,1.47
2018-12-20T18:43:52.706Z,1.67
2018-12-20T18:46:23.107Z,1.47
2018-12-20T18:48:53.433Z,1.50
2018-12-20T18:51:23.452Z,1.30
2018-12-20T18:53:53.756Z,1.60
2018-12-20T18:56:24.875Z,1.57
2018-12-20T18:58:56.425Z,1.50
2018-12-20T19:01:27.699Z,1.60
2018-12-20T19:04:01.226Z,1.10
2018-12-20T19:06:32.451Z,1.30
2018-12-20T19:09:04.899Z,1.60
2018-12-20T19:11:36.426Z,1.27
2018-12-20T19:14:13.805Z,1.10
2018-12-20T19:16:46.243Z,1.17
2018-12-20T19:19:18.010Z,1.00
2018-12-20T19:21:49.461Z,1.27
2018-12-20T19:24:21.809Z,1.90
2018-12-20T19:26:55.452Z,1.30
2018-12-20T19:29:27.903Z,1.10
2018-12-20T19:32:01.218Z,1.50
2018-12-20T19:34:40.664Z,1.40
2018-12-20T19:37:12.394Z,1.70
2018-12-20T19:39:45.518Z,1.50
2018-12-20T19:42:18.507Z,1.30
2018-12-20T19:44:56.596Z,1.30
2018-12-20T19:47:26.736Z,1.60
2018-12-20T19:50:07.639Z,1.40
2018-12-20T19:52:41.193Z,1.30
2018-12-20T19:55:13.623Z,1.37
2018-12-20T19:57:45.843Z,1.30
2018-12-20T20:00:22.824Z,1.20
2018-12-20T20:02:57.063Z,1.10
2018-12-20T20:05:29.930Z,1.23
2018-12-20T20:08:01.169Z,1.30
2018-12-20T20:10:42.395Z,0.90
2018-12-20T20:13:20.261Z,1.10
2018-12-20T20:15:57.345Z,1.00
2018-12-20T20:18:37.478Z,1.00
2018-12-20T20:21:19.347Z,1.17
2018-12-20T20:23:56.336Z,1.10
2018-12-20T20:26:31.557Z,1.30
2018-12-20T20:29:10.248Z,1.60
2018-12-20T20:31:46.951Z,1.10
2018-12-20T20:34:23.897Z,1.37
2018-12-20T20:37:08.115Z,1.20
2018-12-20T20:39:51.782Z,1.57
2018-12-20T20:42:26.286Z,1.50
2018-12-20T20:45:02.459Z,1.40
2018-12-20T20:47:33.650Z,1.10
2018-12-20T20:50:22.078Z,1.07
2018-12-20T20:53:04.064Z,1.27
2018-12-20T20:55:37.259Z,1.30
2018-12-20T20:58:07.152Z,1.10
2018-12-20T21:00:39.963Z,1.07
2018-12-20T21:03:10.737Z,1.07
2018-12-20T21:05:41.822Z,1.07
2018-12-20T21:08:13.127Z,1.33
2018-12-20T21:10:50.059Z,1.70
2018-12-20T21:13:22.647Z,1.33
2018-12-20T21:15:57.050Z,0.90
2018-12-20T21:18:27.747Z,1.00
2018-12-20T21:20:59.311Z,0.93
2018-12-20T21:23:31.554Z,1.07
2018-12-20T21:26:04.228Z,1.10
2018-12-20T21:28:36.356Z,0.90
2018-12-20T21:31:08.009Z,1.20
2018-12-20T21:33:38.336Z,1.07
2018-12-20T21:36:10.999Z,1.17
2018-12-20T21:38:42.796Z,1.10
2018-12-20T21:41:15.152Z,0.90
2018-12-20T21:43:45.954Z,0.90
2018-12-20T21:46:18.331Z,1.00
2018-12-20T21:48:50.421Z,0.97
2018-12-20T21:51:21.449Z,1.00
2018-12-20T21:53:55.178Z,1.13
2018-12-20T21:56:30.506Z,1.13
2018-12-20T21:59:03.121Z,1.10
2018-12-20T22:01:35.061Z,1.00
2018-12-20T22:04:09.048Z,1.00
2018-12-20T22:06:41.707Z,1.00
2018-12-20T22:09:14.507Z,1.30
2018-12-20T22:11:49.735Z,1.03
2018-12-20T22:14:20.225Z,0.87
2018-12-20T22:16:55.624Z,1.20
2018-12-20T22:19:25.317Z,0.97
2018-12-20T22:21:55.600Z,1.00
2018-12-20T22:24:28.811Z,1.23
2018-12-20T22:26:59.735Z,1.53
2018-12-20T22:29:29.950Z,0.97
2018-12-20T22:32:00.729Z,1.10
2018-12-20T22:34:31.529Z,1.07
2018-12-20T22:37:03.065Z,0.90
2018-12-20T22:39:34.188Z,1.17
2018-12-20T22:42:05.695Z,1.07
2018-12-20T22:44:36.494Z,0.83
2018-12-20T22:47:06.773Z,1.10
2018-12-20T22:49:37.643Z,1.03
2018-12-20T22:52:07.797Z,1.10
2018-12-20T22:54:39.621Z,0.97
2018-12-20T22:57:09.042Z,1.10
2018-12-20T22:59:40.148Z,1.10
2018-12-20T23:02:17.872Z,1.00
2018-12-20T23:04:42.641Z,1.13
2018-12-20T23:07:13.526Z,1.20
2018-12-20T23:09:43.369Z,1.10
2018-12-20T23:12:13.642Z,1.00
2018-12-20T23:14:44.442Z,1.10
2018-12-20T23:17:15.002Z,1.10
2018-12-20T23:19:45.472Z,1.00
2018-12-20T23:22:15.673Z,1.40
2018-12-20T23:24:45.112Z,1.10
2018-12-20T23:27:15.045Z,1.10
2018-12-20T23:29:45.178Z,1.00
2018-12-20T23:32:15.419Z,1.00
2018-12-20T23:34:45.284Z,1.27
2018-12-20T23:37:15.127Z,1.13
2018-12-20T23:39:46.748Z,0.93
2018-12-20T23:42:16.503Z,0.90
2018-12-20T23:44:46.834Z,1.17
2018-12-20T23:47:16.678Z,1.13
2018-12-20T23:49:49.916Z,1.10
2018-12-20T23:52:19.899Z,1.00
2018-12-20T23:54:50.276Z,0.90
2018-12-20T23:57:21.800Z,1.00
2018-12-20T23:59:53.171Z,1.20
